Time;durP1;ratioP1;P1;durP2;ratioP2;P2;SDS_P1;SDS_P2;PMS_P1;PMS_P2;Temp;Humidity;BMP_temperature;BMP_pressure;BME280_temperature;BME280_humidity;BME280_pressure;Samples;Min_cycle;Max_cycle;Signal;HPM_P1;HPM_P2
2022/09/14 00:01:45;;;;;;;17.20;6.70;;;;;;;14.45;86.11;99408.13;106582;1270;24177;-66
2022/09/14 00:04:18;;;;;;;16.30;6.10;;;;;;;14.44;86.12;99408.85;106252;1270;22548;-65
2022/09/14 00:06:50;;;;;;;15.10;6.10;;;;;;;14.44;86.24;99404.16;106229;1270;22570;-66
2022/09/14 00:09:24;;;;;;;14.70;6.40;;;;;;;14.43;86.17;99404.27;106359;1271;23952;-67
2022/09/14 00:11:57;;;;;;;14.40;6.60;;;;;;;14.42;85.89;99409.13;106328;1271;23100;-66
2022/09/14 00:14:28;;;;;;;16.20;6.50;;;;;;;14.40;86.07;99406.39;106480;1270;22613;-66
2022/09/14 00:17:00;;;;;;;19.00;5.60;;;;;;;14.40;86.17;99404.00;106406;1269;24757;-66
2022/09/14 00:19:31;;;;;;;15.80;6.50;;;;;;;14.40;86.64;99403.08;106266;1270;24765;-65
2022/09/14 00:22:05;;;;;;;15.40;6.60;;;;;;;14.39;86.56;99403.53;106349;1270;22516;-65
2022/09/14 00:24:36;;;;;;;15.60;6.70;;;;;;;14.38;86.40;99399.42;106292;1270;23073;-66
2022/09/14 00:27:10;;;;;;;15.80;5.60;;;;;;;14.37;86.42;99400.29;106276;1270;25426;-67
2022/09/14 00:29:42;;;;;;;21.60;6.50;;;;;;;14.36;86.69;99395.30;106339;1270;25318;-67
2022/09/14 00:32:13;;;;;;;17.60;6.30;;;;;;;14.35;86.48;99393.58;106310;1271;24198;-65
2022/09/14 00:34:45;;;;;;;16.40;6.40;;;;;;;14.32;86.65;99398.60;106203;1270;22643;-65
2022/09/14 00:37:17;;;;;;;15.10;5.80;;;;;;;14.29;86.67;99397.09;106315;1271;22694;-66
2022/09/14 00:39:53;;;;;;;13.30;5.50;;;;;;;14.27;86.83;99402.45;106234;1270;25028;-66
2022/09/14 00:42:24;;;;;;;18.20;6.10;;;;;;;14.25;86.90;99396.34;106238;1270;22670;-66
2022/09/14 00:45:07;;;;;;;15.40;6.20;;;;;;;14.25;87.23;99397.46;106333;1270;22542;-67
2022/09/14 00:47:38;;;;;;;18.70;6.70;;;;;;;14.24;87.55;99399.01;106242;1270;22615;-67
2022/09/14 00:50:11;;;;;;;14.80;5.70;;;;;;;14.24;87.55;99402.48;106333;1270;22481;-66
2022/09/14 00:52:45;;;;;;;16.70;7.10;;;;;;;14.24;87.64;99403.60;106441;1270;24233;-65
2022/09/14 00:55:21;;;;;;;15.20;6.20;;;;;;;14.25;87.67;99400.33;106295;1271;25934;-66
2022/09/14 00:57:54;;;;;;;12.20;4.90;;;;;;;14.24;87.86;99395.98;106234;1271;22655;-67
2022/09/14 01:00:28;;;;;;;15.20;6.80;;;;;;;14.26;87.95;99396.13;106245;1270;24263;-68
2022/09/14 01:03:00;;;;;;;15.80;6.60;;;;;;;14.26;88.07;99398.78;106516;1270;22612;-66
2022/09/14 01:05:47;;;;;;;15.40;6.20;;;;;;;14.27;88.14;99398.27;106498;1270;22548;-66
2022/09/14 01:08:37;;;;;;;15.50;6.40;;;;;;;14.28;88.34;99397.45;106334;1271;23921;-67
2022/09/14 01:11:20;;;;;;;16.30;6.20;;;;;;;14.30;88.49;99396.83;106330;1271;24212;-67
2022/09/14 01:14:03;;;;;;;14.40;6.30;;;;;;;14.33;88.59;99391.65;106419;1270;25604;-66
2022/09/14 01:16:41;;;;;;;15.10;6.30;;;;;;;14.35;88.69;99389.65;106246;1271;23768;-66
2022/09/14 01:19:23;;;;;;;15.00;6.20;;;;;;;14.37;88.74;99389.10;106300;1270;25874;-67
2022/09/14 01:22:01;;;;;;;16.60;6.60;;;;;;;14.39;89.06;99391.59;106309;1271;25320;-67
2022/09/14 01:24:43;;;;;;;16.40;6.20;;;;;;;14.41;89.10;99390.70;106399;1271;22662;-67
2022/09/14 01:27:29;;;;;;;14.50;6.00;;;;;;;14.44;89.43;99394.40;106234;1271;22522;-66
2022/09/14 01:30:06;;;;;;;15.40;6.70;;;;;;;14.46;89.82;99394.68;106591;1270;22525;-65
2022/09/14 01:32:43;;;;;;;16.30;6.60;;;;;;;14.49;89.80;99395.02;106557;1270;23102;-67
2022/09/14 01:35:21;;;;;;;14.90;6.30;;;;;;;14.52;89.84;99394.11;106367;1271;25487;-66
2022/09/14 01:37:56;;;;;;;18.80;5.90;;;;;;;14.56;90.20;99390.55;106290;1271;26579;-66
2022/09/14 01:40:33;;;;;;;15.10;6.00;;;;;;;14.58;90.08;99390.02;106269;1271;24352;-66
2022/09/14 01:43:10;;;;;;;15.20;6.10;;;;;;;14.61;90.24;99386.88;106381;1270;22539;-66
2022/09/14 01:45:46;;;;;;;14.60;6.50;;;;;;;14.63;90.35;99388.42;102369;1271;5440072;-65
2022/09/14 01:48:22;;;;;;;15.40;6.20;;;;;;;14.65;90.40;99389.27;106346;1271;22742;-65
2022/09/14 01:50:57;;;;;;;15.50;5.90;;;;;;;14.67;90.44;99383.31;106310;1270;22573;-66
2022/09/14 01:53:44;;;;;;;15.10;6.10;;;;;;;14.69;90.67;99374.56;107370;1270;22539;-66
2022/09/14 01:56:21;;;;;;;19.60;7.00;;;;;;;14.72;90.60;99376.02;107751;1270;22492;-66
2022/09/14 01:59:00;;;;;;;15.40;6.20;;;;;;;14.74;90.54;99378.40;106301;1271;22539;-65
2022/09/14 02:01:37;;;;;;;16.70;7.60;;;;;;;14.75;90.48;99376.65;106269;1271;22968;-66
2022/09/14 02:04:14;;;;;;;15.00;6.10;;;;;;;14.77;90.54;99377.14;106279;1271;25201;-66
2022/09/14 02:06:48;;;;;;;13.70;5.40;;;;;;;14.78;90.44;99376.70;106284;1271;25273;-68
2022/09/14 02:09:25;;;;;;;16.90;6.60;;;;;;;14.79;90.36;99371.63;106531;1270;23311;-66
2022/09/14 02:11:59;;;;;;;16.20;6.40;;;;;;;14.81;90.51;99374.34;106253;1271;22501;-65
2022/09/14 02:14:31;;;;;;;14.70;6.10;;;;;;;14.81;90.40;99367.07;106155;1271;22485;-65
2022/09/14 02:17:03;;;;;;;15.80;6.70;;;;;;;14.82;90.57;99365.02;106424;1271;24201;-66
2022/09/14 02:19:40;;;;;;;23.30;7.10;;;;;;;14.82;90.88;99361.44;106397;1271;22544;-66
2022/09/14 02:22:12;;;;;;;18.70;7.20;;;;;;;14.83;90.92;99366.59;106305;1270;27247;-66
2022/09/14 02:24:44;;;;;;;14.30;5.60;;;;;;;14.84;90.89;99361.02;106461;1271;23008;-66
2022/09/14 02:27:15;;;;;;;16.80;5.90;;;;;;;14.85;91.05;99355.48;106328;1271;25377;-67
2022/09/14 02:29:47;;;;;;;15.50;6.80;;;;;;;14.88;91.17;99355.33;106353;1271;24254;-67
2022/09/14 02:32:27;;;;;;;14.30;6.10;;;;;;;14.90;91.49;99354.29;106279;1271;24800;-67
2022/09/14 02:35:07;;;;;;;17.80;6.60;;;;;;;14.93;91.69;99356.65;106429;1271;22548;-66
2022/09/14 02:37:46;;;;;;;17.80;7.40;;;;;;;14.98;91.67;99349.44;106271;1272;26519;-66
2022/09/14 02:40:28;;;;;;;16.30;6.60;;;;;;;15.01;91.62;99353.44;106247;1271;22617;-67
2022/09/14 02:43:10;;;;;;;19.80;6.80;;;;;;;15.02;91.71;99353.00;106302;1271;22528;-65
2022/09/14 02:45:49;;;;;;;16.20;6.60;;;;;;;15.04;91.70;99352.13;106258;1271;25370;-65
2022/09/14 02:48:29;;;;;;;16.20;7.20;;;;;;;15.05;91.89;99350.52;106253;1270;25440;-66
2022/09/14 02:51:09;;;;;;;17.90;8.10;;;;;;;15.05;91.86;99345.76;106300;1271;24298;-67
2022/09/14 02:53:45;;;;;;;19.00;7.40;;;;;;;15.06;91.84;99344.17;106304;1271;24629;-65
2022/09/14 02:56:19;;;;;;;18.20;6.30;;;;;;;15.07;91.93;99351.16;106327;1271;25522;-67
2022/09/14 02:58:50;;;;;;;16.50;7.80;;;;;;;15.07;92.04;99348.90;106287;1270;24173;-66
2022/09/14 03:01:23;;;;;;;16.20;6.90;;;;;;;15.07;92.13;99342.62;106218;1271;25908;-66
2022/09/14 03:03:55;;;;;;;16.10;6.70;;;;;;;15.08;92.11;99344.13;106280;1271;22577;-67
2022/09/14 03:06:26;;;;;;;17.50;6.70;;;;;;;15.09;92.28;99349.28;106218;1270;22567;-66
2022/09/14 03:08:57;;;;;;;14.60;6.20;;;;;;;15.10;92.22;99353.31;106239;1271;22616;-66
2022/09/14 03:11:29;;;;;;;14.90;7.40;;;;;;;15.11;92.38;99354.67;106238;1271;24208;-65
2022/09/14 03:14:01;;;;;;;16.20;7.50;;;;;;;15.12;92.33;99358.36;106332;1270;25144;-66
2022/09/14 03:16:32;;;;;;;16.40;6.80;;;;;;;15.13;92.38;99360.02;106263;1271;25694;-67
2022/09/14 03:19:05;;;;;;;16.50;6.80;;;;;;;15.13;92.39;99357.14;106210;1271;25354;-66
2022/09/14 03:21:38;;;;;;;16.70;7.70;;;;;;;15.14;92.36;99348.56;106217;1271;22525;-66
2022/09/14 03:24:09;;;;;;;16.40;6.00;;;;;;;15.15;92.50;99344.35;106280;1271;24385;-67
2022/09/14 03:26:41;;;;;;;20.00;6.80;;;;;;;15.15;92.52;99345.00;106390;1271;23071;-66
2022/09/14 03:29:13;;;;;;;18.00;6.80;;;;;;;15.16;92.63;99349.04;106291;1271;26559;-66
2022/09/14 03:31:44;;;;;;;17.10;7.50;;;;;;;15.16;92.59;99341.88;106236;1271;22618;-65
2022/09/14 03:34:16;;;;;;;15.90;7.40;;;;;;;15.16;92.66;99340.34;106164;1271;26918;-65
2022/09/14 03:36:47;;;;;;;17.70;7.90;;;;;;;15.16;92.60;99340.45;106254;1271;24743;-66
2022/09/14 03:39:19;;;;;;;19.70;8.10;;;;;;;15.15;92.69;99343.02;106197;1271;23860;-66
2022/09/14 03:41:51;;;;;;;26.90;8.70;;;;;;;15.14;92.60;99342.39;106370;1271;22753;-66
2022/09/14 03:44:22;;;;;;;20.30;8.30;;;;;;;15.11;92.66;99331.98;106271;1271;24046;-66
2022/09/14 03:46:54;;;;;;;19.30;8.50;;;;;;;15.09;92.62;99336.36;106276;1271;24170;-66
2022/09/14 03:49:27;;;;;;;20.60;9.90;;;;;;;15.06;92.57;99332.26;106477;1271;24085;-66
2022/09/14 03:51:59;;;;;;;22.10;8.90;;;;;;;15.04;92.68;99335.40;106315;1271;22783;-66
2022/09/14 03:54:31;;;;;;;20.30;9.10;;;;;;;15.02;92.72;99335.43;106350;1271;22548;-66
2022/09/14 03:57:03;;;;;;;18.00;7.70;;;;;;;14.99;92.77;99331.73;106228;1271;25448;-66
2022/09/14 03:59:34;;;;;;;19.50;9.60;;;;;;;14.98;92.76;99329.62;106258;1270;22542;-65
2022/09/14 04:02:06;;;;;;;18.00;7.90;;;;;;;14.96;92.76;99325.71;106444;1271;22548;-66
2022/09/14 04:04:38;;;;;;;19.00;8.60;;;;;;;14.94;92.81;99327.56;108286;1271;22544;-68
2022/09/14 04:07:10;;;;;;;19.40;8.90;;;;;;;14.93;92.76;99332.17;106882;1271;25367;-67
2022/09/14 04:09:41;;;;;;;19.60;8.40;;;;;;;14.91;92.76;99336.15;106236;1271;25443;-66
2022/09/14 04:12:13;;;;;;;18.10;8.70;;;;;;;14.88;92.61;99335.52;106253;1271;22549;-66
2022/09/14 04:14:45;;;;;;;18.30;8.20;;;;;;;14.86;92.69;99330.52;106223;1271;22751;-66
2022/09/14 04:17:19;;;;;;;19.30;8.40;;;;;;;14.86;92.54;99326.70;106189;1271;22617;-65
2022/09/14 04:19:50;;;;;;;18.60;8.40;;;;;;;14.84;92.50;99327.38;106333;1270;25379;-67
2022/09/14 04:22:22;;;;;;;17.80;8.20;;;;;;;14.83;92.35;99329.74;106902;1270;25973;-67
2022/09/14 04:24:55;;;;;;;23.30;7.70;;;;;;;14.81;92.17;99334.73;106244;1271;24187;-65
2022/09/14 04:27:26;;;;;;;19.60;8.20;;;;;;;14.80;92.29;99335.67;106224;1271;22611;-67
2022/09/14 04:29:59;;;;;;;18.30;8.20;;;;;;;14.78;92.31;99335.43;106301;1270;22608;-65
2022/09/14 04:32:30;;;;;;;18.10;8.30;;;;;;;14.76;92.15;99336.48;106227;1270;22547;-66
2022/09/14 04:35:02;;;;;;;17.30;7.60;;;;;;;14.76;92.14;99344.77;106292;1270;22551;-66
2022/09/14 04:37:35;;;;;;;18.70;8.10;;;;;;;14.73;92.19;99337.95;106346;1271;22590;-66
2022/09/14 04:40:08;;;;;;;18.50;7.90;;;;;;;14.72;92.04;99333.06;106317;1271;22548;-67
2022/09/14 04:42:40;;;;;;;22.90;8.20;;;;;;;14.70;92.10;99330.79;105997;1271;22751;-66
2022/09/14 04:45:12;;;;;;;22.10;9.30;;;;;;;14.67;92.48;99332.86;107271;1270;25514;-65
2022/09/14 04:47:44;;;;;;;22.50;8.90;;;;;;;14.66;92.48;99338.04;106220;1270;22525;-65
2022/09/14 04:50:15;;;;;;;21.80;8.70;;;;;;;14.63;92.36;99341.54;106229;1270;25131;-65
2022/09/14 04:52:47;;;;;;;22.60;9.40;;;;;;;14.62;92.56;99346.45;106304;1270;22869;-67
2022/09/14 04:55:18;;;;;;;21.00;9.20;;;;;;;14.61;92.53;99344.90;106083;1270;22694;-67
2022/09/14 04:57:51;;;;;;;24.00;9.80;;;;;;;14.60;92.69;99352.97;106412;1270;24284;-67
2022/09/14 05:00:24;;;;;;;19.00;8.80;;;;;;;14.58;92.67;99349.31;106214;1270;24240;-66
2022/09/14 05:02:55;;;;;;;20.30;8.60;;;;;;;14.58;92.68;99351.46;106160;1270;24279;-68
2022/09/14 05:05:26;;;;;;;22.50;8.80;;;;;;;14.57;92.65;99348.71;106177;1270;24227;-67
2022/09/14 05:07:58;;;;;;;20.30;8.90;;;;;;;14.58;92.47;99343.04;106267;1270;22726;-68
2022/09/14 05:10:30;;;;;;;22.20;9.00;;;;;;;14.58;92.53;99339.82;106388;1271;22536;-67
2022/09/14 05:13:01;;;;;;;21.70;8.30;;;;;;;14.58;92.53;99335.47;106263;1270;22559;-67
2022/09/14 05:15:33;;;;;;;22.00;8.70;;;;;;;14.57;92.63;99334.81;106116;1270;23921;-66
2022/09/14 05:18:05;;;;;;;24.00;9.20;;;;;;;14.57;92.70;99338.19;106222;1270;24342;-66
2022/09/14 05:20:36;;;;;;;22.20;8.40;;;;;;;14.58;92.77;99339.85;106204;1270;22540;-66
2022/09/14 05:23:07;;;;;;;21.00;9.90;;;;;;;14.59;92.93;99340.67;106287;1270;22544;-69
2022/09/14 05:25:39;;;;;;;23.40;9.70;;;;;;;14.59;93.16;99346.17;106254;1271;22518;-67
2022/09/14 05:28:12;;;;;;;23.00;10.30;;;;;;;14.60;93.10;99347.81;106194;1270;24696;-67
2022/09/14 05:30:43;;;;;;;20.90;9.90;;;;;;;14.62;93.32;99346.41;106252;1270;25373;-67
2022/09/14 05:33:15;;;;;;;22.30;9.20;;;;;;;14.63;93.55;99341.70;106207;1270;22554;-66
2022/09/14 05:35:48;;;;;;;21.80;9.80;;;;;;;14.65;93.61;99347.49;106217;1270;25436;-67
2022/09/14 05:38:20;;;;;;;24.60;10.80;;;;;;;14.67;93.79;99350.65;106349;1270;22575;-67
2022/09/14 05:40:56;;;;;;;26.20;10.00;;;;;;;14.69;93.92;99349.64;106292;1270;24078;-67
2022/09/14 05:43:28;;;;;;;19.80;9.00;;;;;;;14.71;93.98;99352.42;106279;1271;25426;-66
2022/09/14 05:46:03;;;;;;;22.60;9.00;;;;;;;14.74;93.92;99348.52;106349;1270;25361;-66
2022/09/14 05:48:36;;;;;;;19.30;9.10;;;;;;;14.75;94.14;99347.84;106302;1271;25380;-67
2022/09/14 05:51:12;;;;;;;19.40;9.40;;;;;;;14.78;94.22;99351.79;106276;1270;26641;-67
2022/09/14 05:53:47;;;;;;;23.00;10.00;;;;;;;14.80;94.20;99350.79;106296;1271;23979;-67
2022/09/14 05:56:20;;;;;;;20.30;9.00;;;;;;;14.83;94.33;99352.23;106201;1270;22650;-66
2022/09/14 05:58:52;;;;;;;21.50;9.60;;;;;;;14.84;94.33;99348.73;106368;1270;22636;-66
2022/09/14 06:01:25;;;;;;;25.10;9.70;;;;;;;14.87;94.36;99345.50;106256;1270;22605;-67
2022/09/14 06:03:59;;;;;;;21.50;9.60;;;;;;;14.90;94.50;99336.35;106277;1270;24246;-68
2022/09/14 06:06:31;;;;;;;22.70;9.50;;;;;;;14.93;94.56;99340.36;106274;1270;22528;-66
2022/09/14 06:09:03;;;;;;;23.10;9.80;;;;;;;14.97;94.46;99343.02;106388;1270;25277;-67
2022/09/14 06:11:36;;;;;;;20.80;9.60;;;;;;;14.98;94.53;99336.71;106284;1270;24335;-68
2022/09/14 06:14:08;;;;;;;19.60;9.10;;;;;;;15.02;94.57;99336.05;107131;1270;22774;-69
2022/09/14 06:16:40;;;;;;;22.30;8.90;;;;;;;15.06;94.74;99338.81;106512;1270;25319;-67
2022/09/14 06:19:14;;;;;;;20.00;9.10;;;;;;;15.08;94.82;99342.50;106359;1270;24680;-68
2022/09/14 06:21:45;;;;;;;21.30;9.60;;;;;;;15.11;94.87;99340.11;106272;1270;24740;-67
2022/09/14 06:24:16;;;;;;;25.50;10.30;;;;;;;15.15;94.93;99339.70;106168;1270;22538;-67
2022/09/14 06:26:48;;;;;;;22.40;10.10;;;;;;;15.18;95.03;99346.15;106194;1270;22546;-67
2022/09/14 06:29:19;;;;;;;20.20;9.10;;;;;;;15.22;95.12;99339.70;106181;1270;22550;-67
2022/09/14 06:31:51;;;;;;;20.50;8.90;;;;;;;15.27;95.11;99340.65;106275;1270;22649;-67
2022/09/14 06:34:23;;;;;;;20.00;9.10;;;;;;;15.31;95.09;99346.63;106230;1270;24145;-67
2022/09/14 06:36:55;;;;;;;21.10;9.50;;;;;;;15.36;95.16;99343.64;106202;1270;24768;-67
2022/09/14 06:39:27;;;;;;;19.30;9.50;;;;;;;15.41;95.27;99341.59;106343;1270;22613;-67
2022/09/14 06:41:58;;;;;;;22.30;8.90;;;;;;;15.47;95.23;99343.05;106175;1270;25368;-67
2022/09/14 06:44:30;;;;;;;23.30;9.50;;;;;;;15.51;95.40;99341.36;106227;1270;22563;-68
2022/09/14 06:47:01;;;;;;;22.80;10.50;;;;;;;15.56;95.45;99340.41;106281;1270;22588;-67
2022/09/14 06:49:33;;;;;;;23.10;10.10;;;;;;;15.60;95.15;99346.83;106340;1270;23968;-67
2022/09/14 06:52:05;;;;;;;20.10;9.70;;;;;;;15.66;95.32;99349.61;106166;1270;24222;-67
2022/09/14 06:54:36;;;;;;;22.10;9.20;;;;;;;15.72;95.62;99350.11;106144;1270;26569;-68
2022/09/14 06:57:08;;;;;;;19.70;9.70;;;;;;;15.79;95.54;99342.64;106168;1270;22534;-68
2022/09/14 06:59:41;;;;;;;22.10;9.70;;;;;;;15.85;95.46;99347.01;106180;1270;24676;-68
2022/09/14 07:02:14;;;;;;;15.80;7.20;;;;;;;15.90;94.90;99350.66;106290;1270;24213;-66
2022/09/14 07:04:45;;;;;;;23.70;8.50;;;;;;;15.92;94.60;99344.27;106292;1270;24360;-67
2022/09/14 07:07:18;;;;;;;19.90;9.10;;;;;;;15.96;94.64;99342.88;106372;1270;22644;-70
2022/09/14 07:09:49;;;;;;;21.50;8.50;;;;;;;15.98;94.47;99341.85;106265;1270;25663;-69
2022/09/14 07:12:21;;;;;;;24.80;8.70;;;;;;;16.02;94.43;99340.84;106239;1270;22547;-66
2022/09/14 07:14:52;;;;;;;20.30;7.80;;;;;;;16.06;94.67;99344.95;106256;1270;22602;-67
2022/09/14 07:17:24;;;;;;;21.90;8.10;;;;;;;16.09;94.60;99343.02;106242;1270;22535;-67
2022/09/14 07:19:55;;;;;;;22.90;8.80;;;;;;;16.11;94.49;99345.87;106360;1270;24259;-67
2022/09/14 07:22:26;;;;;;;19.70;7.60;;;;;;;16.14;94.47;99344.38;106303;1270;24354;-66
2022/09/14 07:24:58;;;;;;;17.20;7.90;;;;;;;16.17;94.30;99342.55;106321;1270;26480;-67
2022/09/14 07:27:30;;;;;;;16.70;6.30;;;;;;;16.19;94.08;99342.58;106269;1270;22615;-68
2022/09/14 07:30:01;;;;;;;15.90;6.50;;;;;;;16.23;94.12;99345.73;106298;1270;24321;-67
2022/09/14 07:32:33;;;;;;;19.40;6.50;;;;;;;16.26;93.81;99349.45;106368;1270;22573;-66
2022/09/14 07:35:07;;;;;;;19.10;7.10;;;;;;;16.31;93.56;99345.33;106306;1270;22548;-66
2022/09/14 07:37:38;;;;;;;17.50;6.80;;;;;;;16.36;93.51;99344.27;106288;1270;22528;-68
2022/09/14 07:40:11;;;;;;;17.40;6.30;;;;;;;16.41;93.54;99342.42;106280;1269;22631;-67
2022/09/14 07:42:43;;;;;;;16.80;6.50;;;;;;;16.46;93.33;99340.90;106296;1270;25402;-67
2022/09/14 07:45:14;;;;;;;17.70;6.90;;;;;;;16.52;93.31;99340.95;106315;1270;22966;-67
2022/09/14 07:47:46;;;;;;;16.70;6.90;;;;;;;16.56;92.82;99336.17;106338;1270;22547;-67
2022/09/14 07:50:18;;;;;;;17.30;7.20;;;;;;;16.56;92.39;99334.27;106290;1270;24737;-66
2022/09/14 07:52:51;;;;;;;14.80;6.10;;;;;;;16.58;92.54;99326.09;106248;1269;22560;-69
2022/09/14 07:55:24;;;;;;;17.90;6.80;;;;;;;16.63;92.65;99330.19;106205;1270;22548;-67
2022/09/14 07:57:58;;;;;;;16.50;6.30;;;;;;;16.69;92.67;99331.80;106243;1270;22564;-67
2022/09/14 08:00:30;;;;;;;16.00;5.80;;;;;;;16.74;92.55;99336.20;106305;1270;25548;-67
2022/09/14 08:03:02;;;;;;;15.00;5.90;;;;;;;16.78;92.26;99333.05;106162;1270;22553;-67
2022/09/14 08:05:34;;;;;;;16.30;6.80;;;;;;;16.79;92.02;99333.23;106295;1270;22605;-68
2022/09/14 08:08:06;;;;;;;19.20;6.10;;;;;;;16.82;92.15;99332.98;106475;1270;25434;-67
2022/09/14 08:10:38;;;;;;;17.70;7.10;;;;;;;16.85;91.81;99328.64;106327;1270;24287;-67
2022/09/14 08:13:11;;;;;;;16.70;6.90;;;;;;;16.89;91.88;99332.13;106275;1270;22791;-67
2022/09/14 08:15:43;;;;;;;16.80;7.00;;;;;;;16.93;91.92;99332.84;106354;1270;22544;-68
2022/09/14 08:18:15;;;;;;;20.50;6.90;;;;;;;16.97;91.57;99331.73;106332;1270;22682;-66
2022/09/14 08:20:47;;;;;;;16.30;6.40;;;;;;;16.98;91.10;99330.84;106677;1270;24140;-67
2022/09/14 08:23:18;;;;;;;17.20;6.40;;;;;;;17.02;91.40;99332.80;107279;1270;22739;-68
2022/09/14 08:25:52;;;;;;;18.40;6.40;;;;;;;17.07;91.27;99329.10;106275;1270;22550;-70
2022/09/14 08:28:23;;;;;;;13.60;6.40;;;;;;;17.12;91.25;99330.17;106212;1270;24180;-67
2022/09/14 08:30:55;;;;;;;18.20;6.50;;;;;;;17.17;91.13;99330.80;106289;1270;25316;-67
2022/09/14 08:33:26;;;;;;;14.00;5.80;;;;;;;17.22;90.98;99332.63;106217;1270;22532;-66
2022/09/14 08:35:58;;;;;;;15.50;5.80;;;;;;;17.28;90.94;99327.05;106283;1270;25310;-68
2022/09/14 08:38:30;;;;;;;17.30;6.60;;;;;;;17.34;90.65;99325.13;106307;1270;25327;-67
2022/09/14 08:41:12;;;;;;;16.30;6.90;;;;;;;17.38;90.40;99326.05;106517;1270;22546;-67
2022/09/14 08:43:44;;;;;;;18.40;7.00;;;;;;;17.44;90.23;99323.66;106427;1270;22736;-67
2022/09/14 08:46:28;;;;;;;15.50;5.40;;;;;;;17.48;89.95;99318.70;106515;1270;25372;-67
2022/09/14 08:49:03;;;;;;;16.70;6.10;;;;;;;17.52;90.15;99317.46;106261;1270;24816;-67
2022/09/14 08:51:36;;;;;;;15.60;5.70;;;;;;;17.58;89.98;99317.17;106300;1268;25881;-67
2022/09/14 08:54:10;;;;;;;15.00;5.30;;;;;;;17.63;89.75;99321.06;106230;1270;22495;-67
2022/09/14 08:56:45;;;;;;;17.70;5.40;;;;;;;17.65;89.53;99321.64;106409;1270;22548;-67
2022/09/14 08:59:34;;;;;;;16.20;5.80;;;;;;;17.68;89.26;99321.67;106393;1269;25637;-67
2022/09/14 09:02:19;;;;;;;16.10;5.50;;;;;;;17.68;88.93;99320.59;106438;1270;24228;-66
2022/09/14 09:04:56;;;;;;;18.10;5.30;;;;;;;17.70;89.07;99319.92;106258;1270;23092;-67
2022/09/14 09:07:39;;;;;;;12.40;4.70;;;;;;;17.75;88.79;99320.58;106345;1270;23694;-68
2022/09/14 09:10:14;;;;;;;14.00;4.40;;;;;;;17.77;88.33;99324.48;106242;1270;23954;-66
2022/09/14 09:12:53;;;;;;;11.00;4.10;;;;;;;17.81;88.30;99323.14;106491;1269;24255;-66
2022/09/14 09:15:28;;;;;;;12.10;4.80;;;;;;;17.85;88.04;99319.76;106247;1270;22835;-67
2022/09/14 09:18:05;;;;;;;14.10;3.70;;;;;;;17.88;87.72;99320.66;106333;1270;22695;-66
2022/09/14 09:20:43;;;;;;;15.80;4.50;;;;;;;17.92;87.95;99322.00;106297;1270;24384;-68
2022/09/14 09:23:17;;;;;;;12.60;4.00;;;;;;;17.99;87.79;99321.88;106265;1270;24354;-68
2022/09/14 09:25:56;;;;;;;12.80;4.00;;;;;;;18.08;87.61;99319.65;106312;1270;22711;-68
2022/09/14 09:28:29;;;;;;;17.20;4.60;;;;;;;18.11;86.79;99320.30;106569;1270;24813;-67
2022/09/14 09:31:05;;;;;;;14.00;4.10;;;;;;;18.12;86.64;99319.23;106420;1270;25460;-67
2022/09/14 09:33:37;;;;;;;13.30;4.10;;;;;;;18.16;86.82;99320.88;106290;1270;22530;-67
2022/09/14 09:36:13;;;;;;;14.70;3.80;;;;;;;18.18;86.11;99322.70;106480;1270;22569;-67
2022/09/14 09:38:44;;;;;;;14.40;4.20;;;;;;;18.19;86.29;99321.23;106280;1270;26705;-68
2022/09/14 09:41:19;;;;;;;13.20;4.20;;;;;;;18.24;86.61;99318.23;106466;1270;23037;-67
2022/09/14 09:44:04;;;;;;;12.10;3.80;;;;;;;18.33;86.62;99317.00;106278;1270;24462;-67
2022/09/14 09:46:38;;;;;;;14.70;3.60;;;;;;;18.42;86.14;99314.66;106457;1270;22554;-66
2022/09/14 09:49:21;;;;;;;13.50;4.60;;;;;;;18.49;86.10;99312.44;106292;1270;22543;-66
2022/09/14 09:51:53;;;;;;;15.40;4.70;;;;;;;18.56;85.83;99310.81;106553;1270;23877;-67
2022/09/14 09:54:31;;;;;;;16.20;3.80;;;;;;;18.64;85.80;99310.44;106193;1270;26203;-67
2022/09/14 09:57:03;;;;;;;13.90;3.90;;;;;;;18.70;85.22;99311.52;106359;1270;22721;-67
2022/09/14 09:59:38;;;;;;;13.00;3.50;;;;;;;18.75;85.05;99311.10;106363;1270;22529;-67
2022/09/14 10:02:29;;;;;;;12.60;4.10;;;;;;;18.79;84.75;99309.66;106406;1270;22692;-67
2022/09/14 10:05:04;;;;;;;11.70;3.70;;;;;;;18.78;84.56;99306.12;106321;1270;22542;-68
2022/09/14 10:07:38;;;;;;;12.80;2.80;;;;;;;18.78;84.28;99303.86;106367;1270;25650;-67
2022/09/14 10:10:12;;;;;;;12.00;2.90;;;;;;;18.81;84.48;99303.63;106315;1269;27703;-67
2022/09/14 10:12:49;;;;;;;13.10;3.40;;;;;;;18.89;84.31;99304.46;106336;1270;23251;-67
2022/09/14 10:15:24;;;;;;;9.50;3.10;;;;;;;18.94;84.04;99309.05;106398;1270;24463;-66
2022/09/14 10:18:09;;;;;;;12.20;2.80;;;;;;;18.99;83.92;99302.88;106244;1270;24236;-66
2022/09/14 10:20:43;;;;;;;13.50;3.40;;;;;;;19.04;83.47;99301.99;106310;1270;23024;-66
2022/09/14 10:23:25;;;;;;;10.40;3.30;;;;;;;19.07;83.33;99301.10;106298;1270;22836;-66
2022/09/14 10:26:32;;;;;;;14.90;3.40;;;;;;;19.10;83.23;99296.24;106241;1270;23084;-66
2022/09/14 10:29:29;;;;;;;9.50;3.10;;;;;;;19.16;82.66;99298.64;106269;1273;25596;-66
2022/09/14 10:32:07;;;;;;;10.20;3.20;;;;;;;19.12;82.16;99300.81;105944;1279;22887;-66
2022/09/14 10:34:38;;;;;;;12.70;3.30;;;;;;;19.09;81.71;99301.52;105668;1279;22790;-67
2022/09/14 10:37:22;;;;;;;14.30;3.40;;;;;;;19.06;81.64;99295.52;105594;1279;22888;-66
2022/09/14 10:40:09;;;;;;;14.40;3.30;;;;;;;19.03;81.52;99298.75;105569;1279;23668;-67
2022/09/14 10:42:46;;;;;;;9.40;3.00;;;;;;;19.03;81.54;99298.63;105607;1279;24107;-66
2022/09/14 10:45:26;;;;;;;11.30;3.40;;;;;;;19.02;81.44;99294.14;105516;1279;24233;-66
2022/09/14 10:48:13;;;;;;;16.80;3.30;;;;;;;19.02;81.50;99293.42;105628;1279;25388;-68
2022/09/14 10:50:56;;;;;;;12.50;3.20;;;;;;;19.02;81.38;99298.63;105702;1279;24317;-66
2022/09/14 10:53:45;;;;;;;17.50;4.10;;;;;;;19.02;81.17;99296.59;105657;1279;25405;-67
2022/09/14 10:56:22;;;;;;;12.20;3.20;;;;;;;18.99;80.91;99293.00;105441;1279;22546;-67
2022/09/14 10:59:15;;;;;;;17.70;5.20;;;;;;;18.99;81.14;99287.77;105569;1279;23206;-69
2022/09/14 11:02:14;;;;;;;12.00;3.40;;;;;;;19.04;81.35;99284.04;105605;1279;25488;-66
2022/09/14 11:05:07;;;;;;;14.10;3.10;;;;;;;19.09;81.12;99285.27;105715;1279;24336;-67
2022/09/14 11:07:47;;;;;;;8.90;2.20;;;;;;;19.15;81.09;99278.45;105972;1274;25461;-66
2022/09/14 11:10:21;;;;;;;;;;;;;;;19.25;81.23;99274.18;106160;1270;22551;-66
2022/09/14 11:13:18;;;;;;;15.90;3.30;;;;;;;19.35;81.38;99277.33;106273;1270;22757;-66
2022/09/14 11:16:02;;;;;;;15.30;3.10;;;;;;;19.47;80.96;99275.61;106289;1270;23220;-69
2022/09/14 11:18:44;;;;;;;12.90;3.70;;;;;;;19.54;80.40;99273.10;106178;1270;24813;-67
2022/09/14 11:21:23;;;;;;;14.70;3.40;;;;;;;19.58;80.09;99269.29;105837;1270;23031;-67
2022/09/14 11:23:59;;;;;;;14.10;4.20;;;;;;;19.63;80.69;99266.65;106164;1270;25520;-65
2022/09/14 11:26:37;;;;;;;12.60;3.10;;;;;;;19.71;80.65;99267.52;106176;1270;25507;-67
2022/09/14 11:29:19;;;;;;;8.30;2.60;;;;;;;19.75;79.84;99266.52;106279;1270;22873;-67
2022/09/14 11:31:58;;;;;;;12.30;3.70;;;;;;;19.74;79.53;99262.61;106208;1270;26785;-65
2022/09/14 11:34:36;;;;;;;12.60;3.80;;;;;;;19.71;78.95;99261.03;106271;1270;22672;-65
2022/09/14 11:37:12;;;;;;;13.00;4.00;;;;;;;19.68;79.39;99257.46;106048;1270;22891;-65
2022/09/14 11:39:48;;;;;;;15.50;3.80;;;;;;;19.67;79.11;99255.44;106048;1270;22572;-66
2022/09/14 11:42:24;;;;;;;9.50;3.00;;;;;;;19.65;79.05;99250.73;106193;1270;22644;-66
2022/09/14 11:45:03;;;;;;;12.20;3.40;;;;;;;19.64;79.10;99251.54;106218;1270;22656;-65
2022/09/14 11:47:42;;;;;;;14.80;3.80;;;;;;;19.64;78.62;99243.36;106192;1270;22569;-67
2022/09/14 11:50:21;;;;;;;15.00;4.00;;;;;;;19.60;78.34;99241.02;106291;1270;25376;-67
2022/09/14 11:53:02;;;;;;;10.50;3.00;;;;;;;19.57;78.38;99238.92;106279;1270;22555;-67